createdAt,value
2023-02-24T00:01:37.696Z,95703.00
2023-02-24T00:04:08.411Z,95705.25
2023-02-24T00:06:38.703Z,95705.75
2023-02-24T00:09:09.508Z,95709.50
2023-02-24T00:11:39.027Z,95700.97
2023-02-24T00:14:07.145Z,95699.41
2023-02-24T00:16:35.887Z,95692.91
2023-02-24T00:19:03.818Z,95700.66
2023-02-24T00:21:31.710Z,95688.63
2023-02-24T00:24:00.386Z,95686.25
2023-02-24T00:26:30.156Z,95687.34
2023-02-24T00:29:03.202Z,95683.31
2023-02-24T00:31:31.619Z,95683.44
2023-02-24T00:34:00.297Z,95682.31
2023-02-24T00:36:30.009Z,95679.25
2023-02-24T00:38:59.429Z,95672.00
2023-02-24T00:41:30.238Z,95680.00
2023-02-24T00:44:00.650Z,95682.78
2023-02-24T00:46:31.609Z,95671.06
2023-02-24T00:49:04.289Z,95675.44
2023-02-24T00:51:35.460Z,95669.69
2023-02-24T00:54:03.649Z,95671.91
2023-02-24T00:56:33.259Z,95675.03
2023-02-24T00:59:01.927Z,95672.91
2023-02-24T01:01:32.696Z,95664.56
2023-02-24T01:04:11.253Z,95656.50
2023-02-24T01:06:41.532Z,95658.81
2023-02-24T01:09:12.209Z,95659.00
2023-02-24T01:12:00.184Z,95654.22
2023-02-24T01:14:31.760Z,95657.63
2023-02-24T01:17:00.113Z,95657.38
2023-02-24T01:19:31.404Z,95659.59
2023-02-24T01:22:04.231Z,95665.75
2023-02-24T01:24:33.713Z,95658.88
2023-02-24T01:27:02.895Z,95656.31
2023-02-24T01:29:30.622Z,95654.13
2023-02-24T01:31:59.035Z,95651.75
2023-02-24T01:34:28.116Z,95639.59
2023-02-24T01:36:58.762Z,95640.81
2023-02-24T01:39:26.520Z,95638.53
2023-02-24T01:41:54.323Z,95639.41
2023-02-24T01:45:00.334Z,95636.34
2023-02-24T01:47:31.305Z,95626.50
2023-02-24T01:49:59.272Z,95631.28
2023-02-24T01:52:34.416Z,95637.53
2023-02-24T01:55:08.845Z,95636.66
2023-02-24T01:57:39.599Z,95623.94
2023-02-24T02:00:12.444Z,95626.88
2023-02-24T02:02:48.046Z,95626.81
2023-02-24T02:05:16.165Z,95619.94
2023-02-24T02:07:45.941Z,95612.88
2023-02-24T02:10:14.657Z,95616.28
2023-02-24T02:12:45.069Z,95608.75
2023-02-24T02:15:14.680Z,95605.75
2023-02-24T02:17:57.426Z,95607.13
2023-02-24T02:20:55.766Z,95609.41
2023-02-24T02:23:54.326Z,95601.84
2023-02-24T02:26:47.242Z,95608.84
2023-02-24T02:29:33.592Z,95593.78
2023-02-24T02:32:32.214Z,95603.47
2023-02-24T02:35:09.227Z,95598.88
2023-02-24T02:37:45.883Z,95590.84
2023-02-24T02:40:21.221Z,95597.78
2023-02-24T02:42:56.841Z,95593.41
2023-02-24T02:45:29.850Z,95592.78
2023-02-24T02:48:02.712Z,95596.09
2023-02-24T02:50:37.568Z,95583.47
2023-02-24T02:53:12.198Z,95595.00
2023-02-24T02:55:46.801Z,95588.53
2023-02-24T02:58:18.037Z,95593.00
2023-02-24T03:00:58.849Z,95601.84
2023-02-24T03:03:27.967Z,95602.34
2023-02-24T03:06:03.937Z,95598.56
2023-02-24T03:08:37.217Z,95595.41
2023-02-24T03:11:08.991Z,95588.25
2023-02-24T03:13:41.072Z,95589.66
2023-02-24T03:16:12.442Z,95590.75
2023-02-24T03:18:44.795Z,95596.09
2023-02-24T03:21:19.650Z,95578.13
2023-02-24T03:23:51.118Z,95582.91
2023-02-24T03:26:28.132Z,95582.19
2023-02-24T03:29:03.543Z,95573.66
2023-02-24T03:31:38.369Z,95575.22
2023-02-24T03:34:10.619Z,95571.16
2023-02-24T03:36:39.977Z,95572.06
2023-02-24T03:39:11.438Z,95563.41
2023-02-24T03:41:50.717Z,95562.59
2023-02-24T03:44:18.570Z,95568.75
2023-02-24T03:46:46.426Z,95573.16
2023-02-24T03:49:17.314Z,95573.75
2023-02-24T03:52:09.722Z,95570.38
2023-02-24T03:55:01.253Z,95565.81
2023-02-24T03:57:54.692Z,95564.03
2023-02-24T04:00:34.359Z,95570.88
2023-02-24T04:03:18.114Z,95568.19
2023-02-24T04:05:52.713Z,95572.06
2023-02-24T04:08:23.478Z,95572.75
2023-02-24T04:10:59.508Z,95576.50
2023-02-24T04:13:37.284Z,95559.13
2023-02-24T04:16:18.444Z,95555.06
2023-02-24T04:18:50.571Z,95558.31
2023-02-24T04:21:23.584Z,95552.94
2023-02-24T04:23:53.585Z,95546.97
2023-02-24T04:26:24.847Z,95545.59
2023-02-24T04:28:56.751Z,95545.38
2023-02-24T04:31:26.650Z,95542.19
2023-02-24T04:33:55.143Z,95540.59
2023-02-24T04:36:34.088Z,95538.44
2023-02-24T04:39:04.951Z,95540.78
2023-02-24T04:41:33.027Z,95540.28
2023-02-24T04:44:01.689Z,95528.97
2023-02-24T04:46:32.329Z,95539.19
2023-02-24T04:49:02.105Z,95535.22
2023-02-24T04:51:32.378Z,95521.25
2023-02-24T04:54:00.593Z,95517.69
2023-02-24T04:56:29.807Z,95516.28
2023-02-24T04:58:57.568Z,95509.00
2023-02-24T05:01:25.552Z,95510.81
2023-02-24T05:03:53.365Z,95510.81
2023-02-24T05:06:21.261Z,95505.31
2023-02-24T05:08:51.950Z,95511.25
2023-02-24T05:11:20.148Z,95508.34
2023-02-24T05:13:49.615Z,95506.06
2023-02-24T05:16:20.306Z,95508.53
2023-02-24T05:18:48.441Z,95509.31
2023-02-24T05:21:35.495Z,95503.31
2023-02-24T05:24:06.530Z,95505.91
2023-02-24T05:26:36.935Z,95500.47
2023-02-24T05:29:07.294Z,95496.50
2023-02-24T05:31:35.394Z,95489.25
2023-02-24T05:34:05.226Z,95489.97
2023-02-24T05:36:36.405Z,95486.63
2023-02-24T05:39:07.792Z,95491.09
2023-02-24T05:41:38.743Z,95489.53
2023-02-24T05:44:11.460Z,95491.38
2023-02-24T05:46:41.480Z,95486.31
2023-02-24T05:49:14.625Z,95486.84
2023-02-24T05:51:43.599Z,95481.97
2023-02-24T05:54:13.902Z,95479.78
2023-02-24T05:56:43.707Z,95482.66
2023-02-24T05:59:18.222Z,95473.94
2023-02-24T06:01:46.601Z,95467.00
2023-02-24T06:04:21.019Z,95470.84
2023-02-24T06:06:52.459Z,95481.16
2023-02-24T06:09:23.151Z,95478.56
2023-02-24T06:11:51.300Z,95467.66
2023-02-24T06:14:22.221Z,95471.41
2023-02-24T06:16:50.969Z,95466.34
2023-02-24T06:19:20.639Z,95470.00
2023-02-24T06:21:49.175Z,95461.84
2023-02-24T06:24:18.523Z,95465.50
2023-02-24T06:26:46.837Z,95459.56
2023-02-24T06:29:15.765Z,95453.63
2023-02-24T06:31:45.685Z,95460.25
2023-02-24T06:34:14.865Z,95461.78
2023-02-24T06:36:43.953Z,95458.69
2023-02-24T06:39:14.526Z,95457.81
2023-02-24T06:41:42.789Z,95464.16
2023-02-24T06:44:10.737Z,95462.47
2023-02-24T06:46:38.510Z,95465.53
2023-02-24T06:49:07.651Z,95465.44
2023-02-24T06:51:35.471Z,95462.88
2023-02-24T06:54:03.239Z,95465.97
2023-02-24T06:56:32.561Z,95465.56
2023-02-24T06:59:01.171Z,95463.56
2023-02-24T07:01:29.855Z,95463.97
2023-02-24T07:04:17.717Z,95456.28
2023-02-24T07:06:51.936Z,95457.16
2023-02-24T07:09:22.519Z,95459.16
2023-02-24T07:11:52.329Z,95456.88
2023-02-24T07:14:21.763Z,95454.53
2023-02-24T07:16:54.129Z,95453.94
2023-02-24T07:19:25.597Z,95449.06
2023-02-24T07:22:00.060Z,95456.31
2023-02-24T07:24:36.432Z,95450.69
2023-02-24T07:27:06.271Z,95448.00
2023-02-24T07:29:35.158Z,95451.94
2023-02-24T07:32:06.592Z,95451.63
2023-02-24T07:35:05.588Z,95444.56
2023-02-24T07:37:34.860Z,95427.88
2023-02-24T07:40:04.627Z,95436.91
2023-02-24T07:42:35.380Z,95425.28
2023-02-24T07:45:08.166Z,95431.63
2023-02-24T07:47:36.318Z,95431.78
2023-02-24T07:50:06.644Z,95431.78
2023-02-24T07:52:36.502Z,95434.84
2023-02-24T07:55:04.393Z,95435.66
2023-02-24T07:57:33.300Z,95430.59
2023-02-24T08:00:13.670Z,95431.06
2023-02-24T08:02:43.038Z,95433.94
2023-02-24T08:05:10.958Z,95441.22
2023-02-24T08:07:40.226Z,95431.56
2023-02-24T08:10:24.037Z,95422.09
2023-02-24T08:12:54.407Z,95421.81
2023-02-24T08:15:33.797Z,95420.41
2023-02-24T08:18:02.547Z,95406.06
2023-02-24T08:20:36.216Z,95411.16
2023-02-24T08:23:10.863Z,95399.22
2023-02-24T08:25:38.610Z,95397.19
2023-02-24T08:28:11.471Z,95393.56
2023-02-24T08:30:44.916Z,95401.50
2023-02-24T08:33:17.393Z,95386.34
2023-02-24T08:35:45.565Z,95394.88
2023-02-24T08:38:17.528Z,95387.47
2023-02-24T08:40:51.467Z,95381.00
2023-02-24T08:43:32.694Z,95381.47
2023-02-24T08:46:06.447Z,95380.22
2023-02-24T08:48:39.000Z,95370.44
2023-02-24T08:51:12.020Z,95368.91
2023-02-24T08:53:41.422Z,95375.88
2023-02-24T08:56:11.462Z,95379.56
2023-02-24T08:58:47.022Z,95358.38
2023-02-24T09:01:24.172Z,95362.34
2023-02-24T09:03:55.523Z,95363.28
2023-02-24T09:06:26.316Z,95365.03
2023-02-24T09:09:11.597Z,95376.44
2023-02-24T09:11:43.939Z,95362.34
2023-02-24T09:14:26.487Z,95352.88
2023-02-24T09:17:06.874Z,95354.63
2023-02-24T09:19:58.784Z,95345.09
2023-02-24T09:22:57.281Z,95337.31
2023-02-24T09:25:40.610Z,95343.78
2023-02-24T09:28:10.879Z,95334.25
2023-02-24T09:30:51.127Z,95336.63
2023-02-24T09:33:22.350Z,95332.16
2023-02-24T09:36:02.952Z,95326.63
2023-02-24T09:38:57.702Z,95325.34
2023-02-24T09:41:53.249Z,95328.78
2023-02-24T09:44:34.725Z,95327.47
2023-02-24T09:47:13.502Z,95329.50
2023-02-24T09:49:49.076Z,95332.47
2023-02-24T09:52:19.098Z,95320.22
2023-02-24T09:55:07.077Z,95318.38
2023-02-24T09:58:10.895Z,95305.19
2023-02-24T10:00:44.189Z,95321.56
2023-02-24T10:03:41.423Z,95315.00
2023-02-24T10:06:20.543Z,95313.69
2023-02-24T10:08:55.581Z,95307.63
2023-02-24T10:11:32.887Z,95305.41
2023-02-24T10:14:07.133Z,95306.63
2023-02-24T10:16:46.329Z,95309.47
2023-02-24T10:19:25.336Z,95310.06
2023-02-24T10:22:02.831Z,95307.16
2023-02-24T10:24:37.488Z,95306.84
2023-02-24T10:27:16.662Z,95304.06
2023-02-24T10:30:04.713Z,95304.19
2023-02-24T10:32:41.857Z,95301.31
2023-02-24T10:35:16.460Z,95293.78
2023-02-24T10:37:44.690Z,95286.84
2023-02-24T10:40:17.377Z,95289.22
2023-02-24T10:42:47.919Z,95285.63
2023-02-24T10:45:23.807Z,95294.00
2023-02-24T10:47:56.666Z,95291.09
2023-02-24T10:50:27.721Z,95286.38
2023-02-24T10:53:25.994Z,95284.56
2023-02-24T10:56:14.792Z,95273.22
2023-02-24T10:58:56.407Z,95267.66
2023-02-24T11:01:54.885Z,95269.94
2023-02-24T11:04:43.673Z,95256.06
2023-02-24T11:07:24.384Z,95249.22
2023-02-24T11:10:11.325Z,95237.25
2023-02-24T11:13:09.356Z,95241.78
2023-02-24T11:16:00.429Z,95233.22
2023-02-24T11:18:31.436Z,95225.91
2023-02-24T11:21:02.153Z,95215.88
2023-02-24T11:23:34.887Z,95213.84
2023-02-24T11:26:04.962Z,95205.84
2023-02-24T11:53:29.563Z,95172.31
2023-02-24T11:56:04.459Z,95166.06
2023-02-24T11:58:40.264Z,95164.28
2023-02-24T12:01:15.883Z,95157.88
2023-02-24T12:03:52.008Z,95146.63
2023-02-24T12:06:25.338Z,95142.56
2023-02-24T12:08:59.334Z,95138.53
2023-02-24T12:11:38.695Z,95140.88
2023-02-24T12:14:23.426Z,95131.94
2023-02-24T12:16:57.621Z,95122.63
2023-02-24T12:19:31.081Z,95121.16
2023-02-24T12:22:05.771Z,95122.47
2023-02-24T12:24:37.790Z,95113.81
2023-02-24T12:27:18.472Z,95113.81
2023-02-24T12:30:06.456Z,95109.44
2023-02-24T12:32:53.378Z,95105.47
2023-02-24T12:35:27.601Z,95097.63
2023-02-24T12:38:04.668Z,95093.09
2023-02-24T12:40:45.853Z,95089.34
2023-02-24T12:43:26.536Z,95087.19
2023-02-24T12:46:03.033Z,95079.94
2023-02-24T12:48:55.054Z,95078.94
2023-02-24T12:51:29.748Z,95067.22
2023-02-24T12:54:05.007Z,95069.59
2023-02-24T12:56:42.496Z,95067.47
2023-02-24T12:59:16.451Z,95072.63
2023-02-24T13:01:52.673Z,95071.66
2023-02-24T13:04:37.674Z,95060.44
2023-02-24T13:07:36.508Z,95054.53
2023-02-24T13:10:17.984Z,95059.97
2023-02-24T13:12:55.657Z,95047.53
2023-02-24T13:15:26.204Z,95042.63
2023-02-24T13:17:58.257Z,95040.50
2023-02-24T13:20:29.044Z,95035.28
2023-02-24T13:22:57.367Z,95038.53
2023-02-24T13:28:26.747Z,95022.25
2023-02-24T13:31:00.258Z,95022.53
2023-02-24T13:33:32.083Z,95017.78
2023-02-24T13:36:12.052Z,95016.03
2023-02-24T13:38:42.111Z,95014.75
2023-02-24T13:41:22.444Z,95013.09
2023-02-24T13:43:58.931Z,95009.66
2023-02-24T13:46:29.642Z,95001.47
2023-02-24T13:49:24.457Z,94999.97
2023-02-24T13:52:02.087Z,94998.78
2023-02-24T13:55:03.180Z,94999.38
2023-02-24T13:57:48.184Z,94987.66
2023-02-24T14:00:28.028Z,94984.63
2023-02-24T14:02:56.840Z,94984.91
2023-02-24T14:05:27.451Z,94988.28
2023-02-24T14:07:56.477Z,94979.81
2023-02-24T14:10:28.443Z,94968.56
2023-02-24T14:13:04.870Z,94980.53
2023-02-24T14:15:35.583Z,94973.09
2023-02-24T14:18:06.187Z,94964.56
2023-02-24T14:20:34.959Z,94955.63
2023-02-24T14:23:03.843Z,94959.16
2023-02-24T14:25:36.995Z,94960.97
2023-02-24T14:28:05.157Z,94964.13
2023-02-24T14:30:36.916Z,94958.69
2023-02-24T14:33:07.330Z,94947.47
2023-02-24T14:35:37.078Z,94950.50
2023-02-24T14:38:05.868Z,94952.16
2023-02-24T14:40:34.083Z,94949.03
2023-02-24T14:43:03.634Z,94935.03
2023-02-24T14:45:31.391Z,94926.06
2023-02-24T14:48:00.604Z,94932.88
2023-02-24T14:50:33.255Z,94934.47
2023-02-24T14:53:04.924Z,94928.88
2023-02-24T14:55:36.986Z,94925.72
2023-02-24T14:58:12.511Z,94925.81
2023-02-24T15:00:47.371Z,94919.59
2023-02-24T15:03:21.150Z,94918.03
2023-02-24T15:05:51.744Z,94904.00
2023-02-24T15:08:30.531Z,94904.88
2023-02-24T15:10:59.222Z,94903.38
2023-02-24T15:13:36.595Z,94896.81
2023-02-24T15:16:12.502Z,94888.97
2023-02-24T15:18:42.517Z,94877.75
2023-02-24T15:21:21.809Z,94878.44
2023-02-24T15:23:50.024Z,94869.19
2023-02-24T15:26:30.669Z,94862.47
2023-02-24T15:29:00.393Z,94864.75
2023-02-24T15:31:29.491Z,94861.97
2023-02-24T15:34:00.906Z,94860.72
2023-02-24T15:36:32.171Z,94857.69
2023-02-24T15:39:03.689Z,94866.41
2023-02-24T15:41:41.404Z,94858.22
2023-02-24T15:44:25.854Z,94853.91
2023-02-24T15:46:53.669Z,94852.81
2023-02-24T15:49:22.842Z,94844.94
2023-02-24T15:51:53.278Z,94839.88
2023-02-24T15:54:29.146Z,94837.97
2023-02-24T15:56:59.287Z,94839.88
2023-02-24T16:00:17.065Z,94845.19
2023-02-24T16:02:44.790Z,94829.59
2023-02-24T16:05:15.631Z,94822.91
2023-02-24T16:07:45.975Z,94825.06
2023-02-24T16:10:18.896Z,94827.75
2023-02-24T16:12:50.352Z,94822.97
2023-02-24T16:15:23.319Z,94824.09
2023-02-24T16:17:53.076Z,94823.59
2023-02-24T16:20:28.527Z,94818.03
2023-02-24T16:22:57.448Z,94813.31
2023-02-24T16:25:26.132Z,94811.75
2023-02-24T16:27:57.357Z,94809.69
2023-02-24T16:30:30.214Z,94803.03
2023-02-24T16:32:58.631Z,94808.78
2023-02-24T16:35:29.232Z,94805.63
2023-02-24T16:37:57.009Z,94801.38
2023-02-24T16:40:27.895Z,94791.25
2023-02-24T16:42:55.643Z,94798.16
2023-02-24T16:45:28.214Z,94806.50
2023-02-24T16:47:57.841Z,94806.75
2023-02-24T16:50:33.337Z,94799.94
2023-02-24T16:53:01.710Z,94804.09
2023-02-24T16:55:29.592Z,94792.53
2023-02-24T16:57:57.298Z,94797.38
2023-02-24T17:00:25.345Z,94790.31
2023-02-24T17:02:54.111Z,94794.06
2023-02-24T17:05:24.066Z,94795.09
2023-02-24T17:07:55.589Z,94783.72
2023-02-24T17:10:24.869Z,94788.78
2023-02-24T17:12:52.963Z,94787.56
2023-02-24T17:15:22.993Z,94779.47
2023-02-24T17:17:50.896Z,94777.47
2023-02-24T17:20:21.312Z,94781.97
2023-02-24T17:22:49.052Z,94783.31
2023-02-24T17:25:19.871Z,94784.91
2023-02-24T17:27:47.671Z,94777.59
2023-02-24T17:30:17.814Z,94774.91
2023-02-24T17:32:45.629Z,94769.53
2023-02-24T17:35:13.758Z,94781.09
2023-02-24T17:37:41.601Z,94782.66
2023-02-24T17:40:10.677Z,94781.88
2023-02-24T17:42:40.194Z,94771.84
2023-02-24T17:45:09.477Z,94770.31
2023-02-24T17:47:37.312Z,94771.84
2023-02-24T17:50:06.624Z,94773.78
2023-02-24T17:52:34.511Z,94770.72
2023-02-24T17:55:02.295Z,94771.19
2023-02-24T17:57:30.478Z,94761.53
2023-02-24T17:59:59.599Z,94769.94
2023-02-24T18:02:27.492Z,94760.28
2023-02-24T18:04:55.311Z,94762.63
2023-02-24T18:07:25.119Z,94758.03
2023-02-24T18:09:53.248Z,94755.00
2023-02-24T18:12:21.735Z,94760.72
2023-02-24T18:14:59.081Z,94759.16
2023-02-24T18:17:35.672Z,94755.31
2023-02-24T18:20:03.844Z,94760.63
2023-02-24T18:22:31.686Z,94760.63
2023-02-24T18:25:01.044Z,94774.81
2023-02-24T18:27:28.937Z,94768.63
2023-02-24T18:29:57.735Z,94770.09
2023-02-24T18:32:25.694Z,94774.69
2023-02-24T18:34:54.943Z,94763.81
2023-02-24T18:37:23.127Z,94771.34
2023-02-24T18:39:53.197Z,94770.38
2023-02-24T18:42:21.230Z,94770.63
2023-02-24T18:44:48.991Z,94775.56
2023-02-24T18:47:16.713Z,94778.91
2023-02-24T18:49:44.453Z,94775.44
2023-02-24T18:52:13.577Z,94769.06
2023-02-24T18:54:41.434Z,94774.53
2023-02-24T18:57:09.162Z,94779.06
2023-02-24T18:59:39.545Z,94778.25
2023-02-24T19:02:07.399Z,94775.25
2023-02-24T19:04:35.639Z,94779.75
2023-02-24T19:07:03.704Z,94784.47
2023-02-24T19:09:32.788Z,94772.44
2023-02-24T19:12:02.352Z,94777.50
2023-02-24T19:14:31.555Z,94757.41
2023-02-24T19:17:01.119Z,94771.56
2023-02-24T19:19:28.999Z,94757.09
2023-02-24T19:21:57.311Z,94761.69
2023-02-24T19:24:28.032Z,94764.84
2023-02-24T19:26:59.599Z,94761.47
2023-02-24T19:29:28.148Z,94762.25
2023-02-24T19:31:57.705Z,94755.84
2023-02-24T19:34:25.552Z,94757.88
2023-02-24T19:36:53.330Z,94757.09
2023-02-24T19:39:22.393Z,94762.28
2023-02-24T19:41:50.380Z,94762.16
2023-02-24T19:44:19.490Z,94756.75
2023-02-24T19:46:49.916Z,94759.34
2023-02-24T19:49:17.713Z,94756.66
2023-02-24T19:51:48.066Z,94752.81
2023-02-24T19:54:16.153Z,94748.22
2023-02-24T19:56:46.288Z,94750.44
2023-02-24T19:59:15.585Z,94752.03
2023-02-24T20:01:47.358Z,94756.03
2023-02-24T20:04:16.445Z,94759.88
2023-02-24T20:06:44.475Z,94768.59
2023-02-24T20:09:16.276Z,94771.72
2023-02-24T20:11:46.080Z,94763.56
2023-02-24T20:14:14.328Z,94770.25
2023-02-24T20:16:45.541Z,94772.47
2023-02-24T20:19:16.024Z,94773.91
2023-02-24T20:21:46.149Z,94756.84
2023-02-24T20:24:16.815Z,94768.09
2023-02-24T20:26:47.308Z,94762.31
2023-02-24T20:29:16.692Z,94763.06
2023-02-24T20:31:44.624Z,94754.09
2023-02-24T20:34:14.472Z,94775.03
2023-02-24T20:36:46.006Z,94770.28
2023-02-24T20:39:13.878Z,94761.38
2023-02-24T20:41:41.712Z,94778.09
2023-02-24T20:44:10.418Z,94780.19
2023-02-24T20:46:38.783Z,94777.06
2023-02-24T20:49:08.676Z,94770.78
2023-02-24T20:51:38.526Z,94779.03
2023-02-24T20:54:09.539Z,94778.06
2023-02-24T20:56:40.404Z,94777.91
2023-02-24T20:59:12.329Z,94764.47
2023-02-24T21:01:41.022Z,94757.25
2023-02-24T21:04:09.048Z,94758.97
2023-02-24T21:06:42.456Z,94763.66
2023-02-24T21:09:11.870Z,94761.19
2023-02-24T21:11:40.244Z,94761.53
2023-02-24T21:14:08.061Z,94757.25
2023-02-24T21:16:38.179Z,94764.22
2023-02-24T21:19:08.273Z,94769.25
2023-02-24T21:21:43.472Z,94771.28
2023-02-24T21:24:12.634Z,94770.22
2023-02-24T21:26:41.638Z,94764.53
2023-02-24T21:29:09.393Z,94774.81
2023-02-24T21:31:37.302Z,94770.38
2023-02-24T21:34:11.324Z,94767.09
2023-02-24T21:36:39.404Z,94766.69
2023-02-24T21:39:07.510Z,94780.13
2023-02-24T21:41:36.812Z,94790.56
2023-02-24T21:44:04.975Z,94790.13
2023-02-24T21:46:32.754Z,94782.13
2023-02-24T21:49:04.308Z,94776.41
2023-02-24T21:51:32.187Z,94785.28
2023-02-24T21:54:00.745Z,94787.84
2023-02-24T21:56:31.959Z,94788.50
2023-02-24T21:59:08.976Z,94799.22
2023-02-24T22:01:38.941Z,94794.66
2023-02-24T22:04:09.267Z,94790.38
2023-02-24T22:06:38.726Z,94790.72
2023-02-24T22:09:08.346Z,94791.50
2023-02-24T22:11:38.710Z,94781.22
2023-02-24T22:14:09.371Z,94782.47
2023-02-24T22:16:37.532Z,94770.97
2023-02-24T22:19:05.605Z,94768.63
2023-02-24T22:21:34.467Z,94765.28
2023-02-24T22:24:03.933Z,94754.91
2023-02-24T22:26:32.883Z,94758.03
2023-02-24T22:29:03.854Z,94756.13
2023-02-24T22:31:36.614Z,94753.78
2023-02-24T22:34:05.586Z,94758.06
2023-02-24T22:36:36.823Z,94762.78
2023-02-24T22:39:05.641Z,94768.81
2023-02-24T22:41:35.623Z,94767.41
2023-02-24T22:44:05.055Z,94780.38
2023-02-24T22:46:40.169Z,94788.44
2023-02-24T22:49:08.308Z,94797.91
2023-02-24T22:51:36.414Z,94810.38
2023-02-24T22:54:04.655Z,94841.63
2023-02-24T22:56:33.080Z,94845.09
2023-02-24T22:59:01.646Z,94846.09
2023-02-24T23:01:31.553Z,94856.38
2023-02-24T23:04:02.081Z,94878.28
2023-02-24T23:06:31.530Z,94864.59
2023-02-24T23:09:01.662Z,94874.34
2023-02-24T23:11:31.758Z,94872.44
2023-02-24T23:14:03.689Z,94889.78
2023-02-24T23:16:34.916Z,94884.22
2023-02-24T23:19:06.656Z,94881.88
2023-02-24T23:21:39.988Z,94877.94
2023-02-24T23:24:10.889Z,94878.72
2023-02-24T23:26:41.866Z,94876.81
2023-02-24T23:29:11.258Z,94881.72
2023-02-24T23:31:43.072Z,94891.81
2023-02-24T23:34:16.654Z,94903.47
2023-02-24T23:36:47.228Z,94898.84
2023-02-24T23:39:17.055Z,94897.59
2023-02-24T23:41:45.147Z,94893.81
2023-02-24T23:44:15.733Z,94890.66
2023-02-24T23:46:45.953Z,94898.38
2023-02-24T23:49:16.171Z,94899.44
2023-02-24T23:51:50.348Z,94903.88
2023-02-24T23:54:19.046Z,94890.59
2023-02-24T23:56:46.942Z,94893.91
2023-02-24T23:59:15.647Z,94899.25
